createdAt,value
2019-03-31T00:01:43.617Z,35.13
2019-03-31T00:04:11.417Z,32.07
2019-03-31T00:06:39.195Z,27.87
2019-03-31T00:09:07.800Z,30.43
2019-03-31T00:11:35.815Z,30.47
2019-03-31T00:14:04.049Z,50.83
2019-03-31T00:16:32.509Z,31.13
2019-03-31T00:19:00.413Z,30.40
2019-03-31T00:21:29.285Z,28.17
2019-03-31T00:23:57.254Z,31.67
2019-03-31T00:26:26.180Z,25.83
2019-03-31T00:28:53.936Z,30.37
2019-03-31T00:31:22.781Z,29.30
2019-03-31T00:33:50.799Z,35.23
2019-03-31T00:36:18.672Z,29.80
2019-03-31T00:38:46.416Z,36.50
2019-03-31T00:41:14.422Z,31.87
2019-03-31T00:43:42.200Z,32.77
2019-03-31T00:46:10.109Z,31.73
2019-03-31T00:48:37.861Z,36.80
2019-03-31T00:51:05.617Z,32.53
2019-03-31T00:53:33.669Z,37.57
2019-03-31T00:56:01.412Z,35.60
2019-03-31T00:58:29.244Z,29.47
2019-03-31T01:01:17.328Z,35.83
2019-03-31T01:03:45.590Z,41.97
2019-03-31T01:06:15.971Z,39.73
2019-03-31T01:08:44.300Z,42.10
2019-03-31T01:11:15.415Z,38.30
2019-03-31T01:13:44.308Z,38.90
2019-03-31T01:16:13.145Z,39.70
2019-03-31T01:18:41.098Z,37.97
2019-03-31T01:21:08.941Z,31.93
2019-03-31T01:23:37.456Z,42.23
2019-03-31T01:26:05.405Z,48.93
2019-03-31T01:28:34.032Z,40.87
2019-03-31T01:31:02.717Z,41.70
2019-03-31T01:33:31.082Z,44.47
2019-03-31T01:35:59.177Z,37.77
2019-03-31T01:38:26.943Z,37.60
2019-03-31T01:40:54.932Z,37.10
2019-03-31T01:43:23.698Z,40.27
2019-03-31T01:45:51.745Z,44.13
2019-03-31T01:48:19.524Z,33.90
2019-03-31T01:50:47.289Z,34.50
2019-03-31T01:53:15.041Z,35.53
2019-03-31T01:55:43.184Z,38.67
2019-03-31T01:58:11.177Z,37.33
2019-03-31T02:00:42.518Z,40.10
2019-03-31T02:03:10.569Z,35.83
2019-03-31T02:05:38.336Z,40.03
2019-03-31T02:08:06.472Z,45.60
2019-03-31T02:10:34.244Z,40.27
2019-03-31T02:13:02.496Z,44.50
2019-03-31T02:15:30.441Z,50.93
2019-03-31T02:17:58.284Z,49.20
2019-03-31T02:20:26.116Z,41.50
2019-03-31T02:22:54.059Z,43.43
2019-03-31T02:25:22.510Z,52.40
2019-03-31T02:27:50.512Z,49.20
2019-03-31T02:30:18.353Z,52.20
2019-03-31T02:32:46.081Z,47.03
2019-03-31T02:35:15.843Z,40.73
2019-03-31T02:37:43.665Z,40.50
2019-03-31T02:40:11.434Z,38.13
2019-03-31T02:42:39.193Z,45.00
2019-03-31T02:45:07.968Z,46.80
2019-03-31T02:47:35.702Z,47.33
2019-03-31T02:50:03.883Z,44.23
2019-03-31T02:52:31.764Z,42.60
2019-03-31T02:54:59.538Z,37.30
2019-03-31T02:57:27.824Z,40.00
2019-03-31T02:59:57.238Z,32.57
2019-03-31T03:02:40.486Z,43.20
2019-03-31T03:05:17.947Z,39.30
2019-03-31T03:07:31.312Z,44.00
2019-03-31T03:10:00.642Z,36.20
2019-03-31T03:12:32.521Z,36.97
2019-03-31T03:15:02.281Z,56.50
2019-03-31T03:17:30.020Z,51.00
2019-03-31T03:19:57.757Z,49.43
2019-03-31T03:22:25.502Z,46.63
2019-03-31T03:24:53.291Z,42.83
2019-03-31T03:27:21.075Z,46.23
2019-03-31T03:29:49.609Z,43.60
2019-03-31T03:32:17.361Z,46.80
2019-03-31T03:34:45.525Z,44.53
2019-03-31T03:37:13.437Z,47.43
2019-03-31T03:39:42.132Z,46.87
2019-03-31T03:42:10.415Z,42.70
2019-03-31T03:44:38.294Z,41.20
2019-03-31T03:47:06.152Z,38.70
2019-03-31T03:49:34.093Z,42.87
2019-03-31T03:52:02.097Z,36.93
2019-03-31T03:54:31.946Z,30.97
2019-03-31T03:56:59.975Z,39.40
2019-03-31T03:59:27.887Z,78.63
2019-03-31T04:01:57.569Z,47.00
2019-03-31T04:04:25.793Z,42.03
2019-03-31T04:06:53.984Z,34.20
2019-03-31T04:09:22.329Z,37.97
2019-03-31T04:11:50.925Z,40.90
2019-03-31T04:14:18.916Z,42.00
2019-03-31T04:16:47.607Z,40.07
2019-03-31T04:19:15.490Z,48.03
2019-03-31T04:21:43.527Z,39.90
2019-03-31T04:24:11.536Z,43.33
2019-03-31T04:26:39.736Z,48.53
2019-03-31T04:29:07.932Z,31.30
2019-03-31T04:31:35.858Z,31.47
2019-03-31T04:34:03.922Z,38.53
2019-03-31T04:36:31.715Z,29.50
2019-03-31T04:39:00.388Z,28.53
2019-03-31T04:41:28.617Z,33.87
2019-03-31T04:43:56.362Z,33.90
2019-03-31T04:46:24.101Z,30.83
2019-03-31T04:48:51.858Z,36.43
2019-03-31T04:51:19.628Z,36.20
2019-03-31T04:53:47.284Z,31.60
2019-03-31T04:56:15.056Z,31.63
2019-03-31T04:58:42.816Z,37.83
2019-03-31T05:01:10.560Z,47.60
2019-03-31T05:03:38.320Z,43.33
2019-03-31T05:06:06.121Z,33.77
2019-03-31T05:08:33.868Z,39.10
2019-03-31T05:11:01.929Z,45.87
2019-03-31T05:13:29.659Z,33.03
2019-03-31T05:15:57.517Z,31.40
2019-03-31T05:18:25.276Z,36.57
2019-03-31T05:20:53.049Z,36.30
2019-03-31T05:23:20.803Z,30.17
2019-03-31T05:25:48.561Z,34.60
2019-03-31T05:28:16.314Z,35.90
2019-03-31T05:30:44.053Z,29.70
2019-03-31T05:33:11.797Z,27.60
2019-03-31T05:35:39.552Z,31.20
2019-03-31T05:38:07.315Z,44.87
2019-03-31T05:40:35.069Z,43.57
2019-03-31T05:43:03.058Z,32.50
2019-03-31T05:45:31.063Z,44.37
2019-03-31T05:47:58.960Z,39.07
2019-03-31T05:50:26.763Z,32.13
2019-03-31T05:52:54.939Z,37.67
2019-03-31T05:55:22.903Z,31.07
2019-03-31T05:57:50.778Z,27.77
2019-03-31T06:00:31.644Z,36.83
2019-03-31T06:02:59.414Z,32.97
2019-03-31T06:05:27.212Z,35.63
2019-03-31T06:07:54.995Z,34.60
2019-03-31T06:10:23.020Z,30.40
2019-03-31T06:12:51.141Z,29.20
2019-03-31T06:15:19.042Z,26.70
2019-03-31T06:17:46.938Z,27.20
2019-03-31T06:20:14.829Z,27.33
2019-03-31T06:22:42.637Z,29.90
2019-03-31T06:25:10.407Z,21.57
2019-03-31T06:27:38.183Z,24.97
2019-03-31T06:30:06.819Z,23.63
2019-03-31T06:32:34.704Z,25.87
2019-03-31T06:35:02.638Z,26.33
2019-03-31T06:37:30.534Z,24.40
2019-03-31T06:39:58.322Z,22.77
2019-03-31T06:42:26.229Z,27.43
2019-03-31T06:44:54.046Z,29.40
2019-03-31T06:47:21.936Z,23.30
2019-03-31T06:49:49.742Z,25.00
2019-03-31T06:52:17.523Z,26.90
2019-03-31T06:54:45.520Z,24.60
2019-03-31T06:57:13.310Z,30.73
2019-03-31T06:59:41.126Z,25.13
2019-03-31T07:02:09.015Z,28.23
2019-03-31T07:04:36.927Z,24.57
2019-03-31T07:07:04.726Z,27.00
2019-03-31T07:09:32.727Z,32.37
2019-03-31T07:12:00.627Z,22.40
2019-03-31T07:14:28.431Z,27.43
2019-03-31T07:16:56.211Z,25.10
2019-03-31T07:19:24.123Z,25.23
2019-03-31T07:21:52.001Z,28.63
2019-03-31T07:24:19.999Z,27.33
2019-03-31T07:26:47.992Z,41.33
2019-03-31T07:29:15.798Z,30.70
2019-03-31T07:31:43.690Z,27.17
2019-03-31T07:34:11.610Z,26.80
2019-03-31T07:36:40.524Z,25.20
2019-03-31T07:39:08.656Z,25.93
2019-03-31T07:41:36.754Z,28.20
2019-03-31T07:44:04.717Z,24.43
2019-03-31T07:46:32.493Z,29.37
2019-03-31T07:49:00.511Z,25.60
2019-03-31T07:51:28.423Z,25.00
2019-03-31T07:53:56.240Z,24.20
2019-03-31T07:56:24.148Z,26.00
2019-03-31T07:58:51.986Z,24.63
2019-03-31T08:01:20.791Z,24.10
2019-03-31T08:03:49.791Z,24.33
2019-03-31T08:06:17.785Z,24.23
2019-03-31T08:08:45.701Z,24.20
2019-03-31T08:11:16.959Z,24.73
2019-03-31T08:13:43.546Z,28.63
2019-03-31T08:16:11.438Z,31.87
2019-03-31T08:18:39.461Z,30.23
2019-03-31T08:21:07.860Z,27.33
2019-03-31T08:23:35.851Z,28.13
2019-03-31T08:26:03.787Z,26.50
2019-03-31T08:28:31.686Z,27.00
2019-03-31T08:30:59.610Z,27.93
2019-03-31T08:33:27.525Z,32.43
2019-03-31T08:35:55.411Z,29.70
2019-03-31T08:38:24.588Z,26.03
2019-03-31T08:40:52.779Z,26.63
2019-03-31T08:43:20.822Z,23.57
2019-03-31T08:45:48.708Z,30.20
2019-03-31T08:48:16.610Z,29.23
2019-03-31T08:50:44.598Z,27.37
2019-03-31T08:53:12.639Z,27.53
2019-03-31T08:55:40.446Z,35.07
2019-03-31T08:58:08.335Z,27.57
2019-03-31T09:00:45.722Z,39.37
2019-03-31T09:03:13.531Z,23.73
2019-03-31T09:05:41.415Z,26.17
2019-03-31T09:08:09.325Z,22.40
2019-03-31T09:10:37.275Z,22.83
2019-03-31T09:13:05.386Z,24.00
2019-03-31T09:15:33.309Z,26.03
2019-03-31T09:18:01.330Z,24.87
2019-03-31T09:20:29.253Z,25.30
2019-03-31T09:22:57.185Z,24.53
2019-03-31T09:25:25.093Z,23.80
2019-03-31T09:27:53.015Z,23.03
2019-03-31T09:30:21.146Z,23.40
2019-03-31T09:32:49.083Z,28.13
2019-03-31T09:35:17.070Z,25.30
2019-03-31T09:37:44.983Z,22.50
2019-03-31T09:40:13.313Z,26.27
2019-03-31T09:42:41.327Z,22.30
2019-03-31T09:45:09.591Z,25.63
2019-03-31T09:47:38.097Z,30.07
2019-03-31T09:50:07.642Z,24.23
2019-03-31T09:52:35.652Z,21.30
2019-03-31T09:55:04.079Z,22.50
2019-03-31T09:57:32.102Z,23.50
2019-03-31T10:00:00.374Z,29.40
2019-03-31T10:02:28.521Z,26.37
2019-03-31T10:04:56.295Z,23.87
2019-03-31T10:07:24.671Z,21.60
2019-03-31T10:09:52.717Z,30.60
2019-03-31T10:12:20.805Z,23.50
2019-03-31T10:14:48.686Z,24.83
2019-03-31T10:17:16.490Z,21.17
2019-03-31T10:19:44.267Z,21.57
2019-03-31T10:22:12.214Z,22.30
2019-03-31T10:24:40.122Z,21.67
2019-03-31T10:27:08.078Z,24.50
2019-03-31T10:29:36.094Z,21.83
2019-03-31T10:32:04.209Z,19.03
2019-03-31T10:34:31.983Z,22.43
2019-03-31T10:36:59.870Z,21.40
2019-03-31T10:39:28.394Z,20.03
2019-03-31T10:41:56.619Z,17.53
2019-03-31T10:44:24.475Z,23.13
2019-03-31T10:46:52.297Z,22.50
2019-03-31T10:49:20.248Z,24.80
2019-03-31T10:51:48.407Z,17.67
2019-03-31T10:54:16.361Z,20.67
2019-03-31T10:56:44.400Z,18.20
2019-03-31T10:59:12.227Z,19.53
2019-03-31T11:01:40.123Z,20.90
2019-03-31T11:04:08.022Z,17.30
2019-03-31T11:06:35.860Z,17.37
2019-03-31T11:09:05.511Z,15.80
2019-03-31T11:11:33.535Z,16.80
2019-03-31T11:14:01.459Z,17.90
2019-03-31T11:16:29.367Z,17.57
2019-03-31T11:18:57.360Z,23.60
2019-03-31T11:21:33.253Z,35.33
2019-03-31T11:24:01.138Z,17.80
2019-03-31T11:26:28.968Z,18.70
2019-03-31T11:28:56.762Z,20.03
2019-03-31T11:31:24.686Z,21.30
2019-03-31T11:33:52.583Z,18.20
2019-03-31T11:36:20.487Z,18.40
2019-03-31T11:38:48.682Z,22.10
2019-03-31T11:41:16.477Z,17.90
2019-03-31T11:43:45.354Z,25.60
2019-03-31T11:46:13.418Z,25.43
2019-03-31T11:48:41.259Z,22.70
2019-03-31T11:51:09.366Z,18.77
2019-03-31T11:53:37.191Z,19.93
2019-03-31T11:56:05.068Z,19.90
2019-03-31T11:58:32.868Z,21.47
2019-03-31T12:01:00.887Z,22.03
2019-03-31T12:03:30.925Z,26.03
2019-03-31T12:05:58.754Z,23.40
2019-03-31T12:08:26.648Z,21.37
2019-03-31T12:10:54.683Z,21.33
2019-03-31T12:13:22.626Z,22.23
2019-03-31T12:15:50.568Z,20.60
2019-03-31T12:18:18.506Z,20.40
2019-03-31T12:20:46.291Z,17.60
2019-03-31T12:23:14.071Z,17.40
2019-03-31T12:25:41.986Z,21.43
2019-03-31T12:28:09.778Z,19.50
2019-03-31T12:30:37.575Z,18.67
2019-03-31T12:33:05.490Z,18.00
2019-03-31T12:35:33.395Z,15.23
2019-03-31T12:38:01.179Z,19.47
2019-03-31T12:40:33.243Z,17.47
2019-03-31T12:43:01.219Z,17.07
2019-03-31T12:45:29.214Z,18.80
2019-03-31T12:47:57.137Z,21.50
2019-03-31T12:50:24.932Z,17.97
2019-03-31T12:52:52.720Z,13.23
2019-03-31T12:55:20.831Z,17.43
2019-03-31T12:57:51.604Z,15.70
2019-03-31T13:00:18.562Z,14.07
2019-03-31T13:02:46.475Z,15.20
2019-03-31T13:05:14.431Z,13.13
2019-03-31T13:07:55.426Z,14.03
2019-03-31T13:10:12.560Z,14.93
2019-03-31T13:12:40.463Z,14.30
2019-03-31T13:15:08.461Z,13.00
2019-03-31T13:17:36.525Z,11.47
2019-03-31T13:20:05.137Z,17.67
2019-03-31T13:22:33.102Z,13.03
2019-03-31T13:25:02.516Z,15.10
2019-03-31T13:27:30.675Z,12.73
2019-03-31T13:29:58.490Z,13.30
2019-03-31T13:32:26.415Z,12.53
2019-03-31T13:34:54.403Z,13.47
2019-03-31T13:37:22.303Z,16.13
2019-03-31T13:39:50.300Z,10.53
2019-03-31T13:42:18.207Z,16.23
2019-03-31T13:44:46.978Z,18.03
2019-03-31T13:47:14.903Z,13.63
2019-03-31T13:49:42.894Z,14.07
2019-03-31T13:52:10.819Z,15.00
2019-03-31T13:54:38.754Z,12.20
2019-03-31T13:57:07.625Z,16.73
2019-03-31T13:59:36.542Z,13.67
2019-03-31T14:02:04.735Z,14.73
2019-03-31T14:04:35.438Z,20.40
2019-03-31T14:07:04.470Z,16.70
2019-03-31T14:09:32.497Z,13.80
2019-03-31T14:12:00.291Z,14.47
2019-03-31T14:14:28.233Z,14.13
2019-03-31T14:16:56.208Z,17.83
2019-03-31T14:19:24.103Z,14.00
2019-03-31T14:21:52.119Z,11.73
2019-03-31T14:24:20.062Z,16.20
2019-03-31T14:26:48.021Z,11.33
2019-03-31T14:29:16.183Z,12.83
2019-03-31T14:31:44.109Z,12.03
2019-03-31T14:34:12.018Z,19.70
2019-03-31T14:36:40.067Z,11.83
2019-03-31T14:39:08.551Z,13.13
2019-03-31T14:41:36.711Z,16.33
2019-03-31T14:44:04.584Z,12.63
2019-03-31T14:46:32.651Z,12.90
2019-03-31T14:49:00.589Z,13.00
2019-03-31T14:51:28.383Z,11.60
2019-03-31T14:53:56.226Z,13.17
2019-03-31T14:56:24.285Z,12.77
2019-03-31T14:58:52.222Z,14.67
2019-03-31T15:01:21.395Z,14.63
2019-03-31T15:03:49.462Z,14.57
2019-03-31T15:06:17.363Z,14.80
2019-03-31T15:08:54.224Z,14.70
2019-03-31T15:11:15.110Z,17.57
2019-03-31T15:13:43.078Z,16.43
2019-03-31T15:16:11.039Z,13.90
2019-03-31T15:18:38.854Z,15.73
2019-03-31T15:21:06.843Z,13.67
2019-03-31T15:23:34.794Z,12.10
2019-03-31T15:26:02.819Z,17.60
2019-03-31T15:28:30.838Z,14.30
2019-03-31T15:30:58.783Z,16.87
2019-03-31T15:33:26.734Z,17.03
2019-03-31T15:35:55.011Z,15.00
2019-03-31T15:38:23.014Z,14.80
2019-03-31T15:40:50.929Z,13.47
2019-03-31T15:43:18.870Z,16.70
2019-03-31T15:45:46.721Z,15.37
2019-03-31T15:48:14.803Z,17.30
2019-03-31T15:50:42.940Z,16.10
2019-03-31T15:53:10.778Z,16.47
2019-03-31T15:55:38.678Z,18.77
2019-03-31T15:58:06.671Z,22.03
2019-03-31T16:00:34.635Z,13.77
2019-03-31T16:03:02.643Z,14.17
2019-03-31T16:05:30.421Z,14.07
2019-03-31T16:07:57.644Z,13.03
2019-03-31T16:10:24.877Z,15.37
2019-03-31T16:12:52.097Z,15.03
2019-03-31T16:15:19.441Z,16.97
2019-03-31T16:17:46.681Z,16.13
2019-03-31T16:20:14.228Z,15.67
2019-03-31T16:22:41.544Z,20.43
2019-03-31T16:25:21.021Z,15.30
2019-03-31T16:27:48.216Z,14.87
2019-03-31T16:30:15.653Z,15.87
2019-03-31T16:32:42.904Z,23.03
2019-03-31T16:35:10.322Z,14.07
2019-03-31T16:37:37.581Z,16.03
2019-03-31T16:40:05.300Z,11.90
2019-03-31T16:42:32.493Z,13.23
2019-03-31T16:44:59.707Z,14.30
2019-03-31T16:47:26.965Z,13.23
2019-03-31T16:49:54.316Z,19.03
2019-03-31T16:52:21.562Z,15.50
2019-03-31T16:54:48.774Z,20.60
2019-03-31T16:57:15.973Z,16.50
2019-03-31T16:59:43.174Z,16.57
2019-03-31T17:02:10.412Z,16.70
2019-03-31T17:04:37.672Z,16.90
2019-03-31T17:07:04.924Z,22.07
2019-03-31T17:09:32.161Z,18.30
2019-03-31T17:11:59.610Z,20.03
2019-03-31T17:14:26.812Z,17.30
2019-03-31T17:16:54.072Z,19.73
2019-03-31T17:19:21.338Z,17.60
2019-03-31T17:21:48.584Z,16.90
2019-03-31T17:24:15.896Z,19.70
2019-03-31T17:26:43.205Z,15.90
2019-03-31T17:29:10.421Z,17.63
2019-03-31T17:31:37.636Z,17.57
2019-03-31T17:34:04.934Z,18.07
2019-03-31T17:36:32.168Z,17.00
2019-03-31T17:38:59.373Z,21.43
2019-03-31T17:41:26.600Z,21.37
2019-03-31T17:43:53.892Z,21.27
2019-03-31T17:46:21.209Z,23.97
2019-03-31T17:48:48.413Z,17.93
2019-03-31T17:51:15.653Z,19.57
2019-03-31T17:53:42.865Z,21.33
2019-03-31T17:56:10.057Z,19.33
2019-03-31T17:58:37.326Z,20.70
2019-03-31T18:01:05.549Z,17.40
2019-03-31T18:03:32.764Z,22.90
2019-03-31T18:06:00.032Z,23.50
2019-03-31T18:08:27.256Z,20.40
2019-03-31T18:10:54.584Z,18.17
2019-03-31T18:13:22.003Z,22.43
2019-03-31T18:15:49.434Z,24.80
2019-03-31T18:18:16.668Z,19.67
2019-03-31T18:20:43.951Z,21.10
2019-03-31T18:23:11.233Z,20.97
2019-03-31T18:25:38.442Z,21.50
2019-03-31T18:28:05.750Z,21.20
2019-03-31T18:30:32.956Z,23.20
2019-03-31T18:33:00.398Z,21.30
2019-03-31T18:35:27.606Z,18.97
2019-03-31T18:37:54.816Z,19.20
2019-03-31T18:40:34.373Z,19.07
2019-03-31T18:42:51.137Z,21.00
2019-03-31T18:45:18.336Z,25.07
2019-03-31T18:47:45.561Z,25.13
2019-03-31T18:50:13.021Z,24.73
2019-03-31T18:52:40.364Z,30.80
2019-03-31T18:55:36.321Z,28.37
2019-03-31T18:58:21.232Z,29.80
2019-03-31T19:00:57.408Z,40.00
2019-03-31T19:03:41.568Z,33.53
2019-03-31T19:06:24.853Z,37.70
2019-03-31T19:09:12.625Z,32.90
2019-03-31T19:11:49.048Z,29.67
2019-03-31T19:14:34.337Z,34.50
2019-03-31T19:17:27.859Z,29.87
2019-03-31T19:20:30.285Z,32.87
2019-03-31T19:23:07.356Z,33.40
2019-03-31T19:25:42.805Z,30.63
2019-03-31T19:28:27.187Z,34.17
2019-03-31T19:31:23.273Z,28.27
2019-03-31T19:34:08.737Z,27.40
2019-03-31T19:36:43.997Z,30.70
2019-03-31T19:39:27.831Z,29.70
2019-03-31T19:42:29.298Z,40.20
2019-03-31T19:45:14.959Z,28.97
2019-03-31T19:47:50.952Z,31.43
2019-03-31T19:50:46.601Z,38.30
2019-03-31T19:53:42.536Z,32.80
2019-03-31T19:56:31.881Z,31.67
2019-03-31T19:59:21.418Z,33.60
2019-03-31T20:02:14.309Z,31.27
2019-03-31T20:05:00.244Z,34.10
2019-03-31T20:07:47.360Z,31.77
2019-03-31T20:10:34.208Z,40.03
2019-03-31T20:13:26.941Z,35.70
2019-03-31T20:16:13.892Z,42.40
2019-03-31T20:18:56.047Z,37.43
2019-03-31T20:21:34.216Z,37.27
2019-03-31T20:24:17.912Z,43.07
2019-03-31T20:26:53.549Z,42.47
2019-03-31T20:29:40.140Z,47.40
2019-03-31T20:32:35.552Z,49.77
2019-03-31T20:35:25.156Z,48.47
2019-03-31T20:38:13.288Z,46.80
2019-03-31T20:41:00.144Z,50.73
2019-03-31T20:43:47.832Z,47.57
2019-03-31T20:46:15.009Z,46.23
2019-03-31T20:48:42.204Z,50.37
2019-03-31T20:51:09.412Z,56.17
2019-03-31T20:53:36.612Z,48.27
2019-03-31T20:56:03.981Z,54.37
2019-03-31T20:58:31.172Z,50.93
2019-03-31T21:00:58.368Z,48.97
2019-03-31T21:03:25.568Z,51.73
2019-03-31T21:05:52.784Z,59.10
2019-03-31T21:08:19.968Z,52.83
2019-03-31T21:10:47.168Z,52.07
2019-03-31T21:13:14.377Z,56.53
2019-03-31T21:15:41.573Z,54.37
2019-03-31T21:18:08.790Z,56.20
2019-03-31T21:20:36.145Z,54.80
2019-03-31T21:23:03.349Z,66.53
2019-03-31T21:25:30.540Z,58.03
2019-03-31T21:27:57.746Z,58.23
2019-03-31T21:30:24.950Z,60.37
2019-03-31T21:32:52.184Z,60.80
2019-03-31T21:35:19.416Z,65.13
2019-03-31T21:37:46.612Z,57.37
2019-03-31T21:40:13.808Z,56.00
2019-03-31T21:42:41.064Z,59.90
2019-03-31T21:45:08.365Z,58.67
2019-03-31T21:47:35.713Z,59.43
2019-03-31T21:50:03.504Z,63.73
2019-03-31T21:52:30.719Z,58.47
2019-03-31T21:54:57.921Z,63.13
2019-03-31T21:57:25.120Z,63.50
2019-03-31T21:59:52.332Z,56.00
2019-03-31T22:02:19.550Z,61.10
2019-03-31T22:04:46.757Z,59.90
2019-03-31T22:07:13.985Z,66.00
2019-03-31T22:09:41.289Z,63.60
2019-03-31T22:12:08.488Z,65.13
2019-03-31T22:14:35.720Z,70.63
2019-03-31T22:17:03.036Z,72.83
2019-03-31T22:19:30.254Z,67.60
2019-03-31T22:21:57.437Z,67.93
2019-03-31T22:24:24.740Z,67.10
2019-03-31T22:26:51.934Z,67.20
2019-03-31T22:29:19.153Z,63.30
2019-03-31T22:31:46.387Z,70.60
2019-03-31T22:34:13.997Z,73.97
2019-03-31T22:36:41.200Z,67.07
2019-03-31T22:39:08.616Z,68.17
2019-03-31T22:41:35.811Z,67.87
2019-03-31T22:44:03.081Z,76.60
2019-03-31T22:46:30.376Z,75.37
2019-03-31T22:48:57.580Z,71.10
2019-03-31T22:51:24.772Z,74.30
2019-03-31T22:53:51.971Z,69.57
2019-03-31T22:56:19.177Z,73.73
2019-03-31T22:58:46.393Z,79.47
2019-03-31T23:01:13.604Z,71.67
2019-03-31T23:03:40.813Z,75.50
2019-03-31T23:06:08.007Z,74.73
2019-03-31T23:08:35.228Z,76.20
2019-03-31T23:11:03.068Z,79.23
2019-03-31T23:13:30.316Z,83.67
2019-03-31T23:15:57.670Z,74.40
2019-03-31T23:18:24.888Z,72.17
2019-03-31T23:20:52.065Z,72.07
2019-03-31T23:23:19.278Z,77.40
2019-03-31T23:25:46.477Z,73.57
2019-03-31T23:28:13.696Z,70.53
2019-03-31T23:30:40.904Z,73.80
2019-03-31T23:33:08.097Z,73.17
2019-03-31T23:35:35.292Z,69.23
2019-03-31T23:38:02.492Z,77.43
2019-03-31T23:40:29.693Z,77.17
2019-03-31T23:42:56.887Z,79.33
2019-03-31T23:45:24.208Z,80.83
2019-03-31T23:47:51.408Z,76.83
2019-03-31T23:50:18.596Z,72.50
2019-03-31T23:52:45.793Z,83.40
2019-03-31T23:55:13.012Z,79.43
2019-03-31T23:57:41.110Z,121.27
